createdAt,value
2018-05-11T00:00:12.265Z,15.37
2018-05-11T00:02:40.446Z,13.10
2018-05-11T00:05:10.776Z,14.20
2018-05-11T00:07:40.407Z,13.80
2018-05-11T00:10:08.520Z,13.10
2018-05-11T00:12:37.676Z,13.10
2018-05-11T00:15:07.163Z,11.50
2018-05-11T00:17:35.413Z,11.23
2018-05-11T00:20:03.519Z,11.57
2018-05-11T00:22:31.641Z,12.10
2018-05-11T00:24:59.752Z,11.30
2018-05-11T00:27:27.885Z,14.20
2018-05-11T00:29:56.002Z,12.97
2018-05-11T00:32:24.273Z,11.13
2018-05-11T00:34:52.367Z,10.37
2018-05-11T00:37:21.762Z,11.17
2018-05-11T00:39:49.893Z,15.50
2018-05-11T00:42:18.003Z,13.77
2018-05-11T00:44:46.129Z,10.87
2018-05-11T00:47:14.261Z,13.00
2018-05-11T00:49:42.551Z,13.53
2018-05-11T00:52:10.661Z,12.10
2018-05-11T00:54:38.759Z,15.27
2018-05-11T00:57:06.970Z,17.87
2018-05-11T00:59:35.872Z,11.67
2018-05-11T01:02:04.743Z,13.33
2018-05-11T01:04:33.042Z,13.20
2018-05-11T01:07:01.187Z,15.23
2018-05-11T01:09:30.132Z,15.20
2018-05-11T01:11:58.225Z,12.73
2018-05-11T01:14:26.346Z,12.37
2018-05-11T01:16:55.286Z,13.47
2018-05-11T01:19:23.377Z,15.00
2018-05-11T01:21:52.460Z,14.10
2018-05-11T01:24:20.663Z,13.97
2018-05-11T01:26:48.819Z,10.73
2018-05-11T01:29:16.953Z,13.30
2018-05-11T01:31:45.049Z,14.50
2018-05-11T01:34:13.153Z,15.67
2018-05-11T01:36:41.266Z,13.37
2018-05-11T01:39:09.465Z,12.03
2018-05-11T01:41:39.144Z,15.37
2018-05-11T01:44:07.272Z,12.77
2018-05-11T01:46:35.377Z,12.20
2018-05-11T01:49:04.448Z,11.77
2018-05-11T01:51:32.559Z,13.77
2018-05-11T01:54:02.051Z,14.93
2018-05-11T01:56:30.212Z,14.03
2018-05-11T01:58:59.112Z,15.07
2018-05-11T02:01:27.986Z,15.60
2018-05-11T02:03:56.102Z,12.43
2018-05-11T02:06:24.225Z,9.97
2018-05-11T02:08:52.427Z,16.33
2018-05-11T02:11:21.303Z,13.97
2018-05-11T02:13:50.276Z,10.57
2018-05-11T02:16:18.621Z,14.30
2018-05-11T02:18:46.732Z,10.37
2018-05-11T02:21:15.107Z,12.70
2018-05-11T02:23:43.250Z,10.60
2018-05-11T02:26:11.375Z,10.17
2018-05-11T02:28:40.411Z,16.03
2018-05-11T02:31:09.324Z,14.10
2018-05-11T02:33:37.754Z,15.70
2018-05-11T02:36:06.645Z,12.03
2018-05-11T02:38:34.876Z,11.53
2018-05-11T02:41:02.992Z,13.13
2018-05-11T02:43:31.120Z,14.17
2018-05-11T02:45:59.334Z,10.90
2018-05-11T02:48:28.305Z,11.73
2018-05-11T02:50:56.593Z,12.37
2018-05-11T02:53:25.490Z,9.37
2018-05-11T02:55:54.435Z,13.80
2018-05-11T02:58:22.475Z,14.23
2018-05-11T03:00:50.746Z,13.97
2018-05-11T03:03:19.693Z,13.93
2018-05-11T03:05:47.832Z,15.60
2018-05-11T03:08:16.118Z,13.90
2018-05-11T03:10:44.325Z,15.07
2018-05-11T03:13:12.424Z,19.07
2018-05-11T03:15:41.299Z,13.67
2018-05-11T03:18:10.166Z,16.63
2018-05-11T03:20:38.290Z,15.50
2018-05-11T03:23:06.606Z,18.63
2018-05-11T03:25:34.887Z,14.87
2018-05-11T03:28:03.020Z,14.47
2018-05-11T03:30:31.124Z,14.07
2018-05-11T03:32:59.239Z,12.90
2018-05-11T03:35:28.128Z,15.43
2018-05-11T03:37:57.215Z,13.60
2018-05-11T03:40:25.669Z,13.33
2018-05-11T03:42:53.783Z,14.20
2018-05-11T03:45:22.731Z,16.77
2018-05-11T03:47:50.858Z,13.20
2018-05-11T03:50:18.965Z,14.03
2018-05-11T03:52:47.076Z,16.17
2018-05-11T03:55:16.509Z,12.90
2018-05-11T03:57:45.155Z,17.77
2018-05-11T04:00:13.268Z,13.23
2018-05-11T04:02:53.173Z,17.57
2018-05-11T04:05:33.477Z,13.90
2018-05-11T04:08:14.211Z,17.00
2018-05-11T04:10:42.313Z,15.30
2018-05-11T04:13:11.284Z,12.40
2018-05-11T04:15:39.529Z,14.27
2018-05-11T04:18:07.631Z,16.83
2018-05-11T04:20:35.813Z,15.70
2018-05-11T04:23:05.469Z,14.37
2018-05-11T04:25:34.171Z,13.87
2018-05-11T04:28:02.269Z,14.10
2018-05-11T04:30:31.286Z,11.97
2018-05-11T04:33:00.135Z,17.87
2018-05-11T04:35:28.240Z,20.93
2018-05-11T04:37:57.457Z,18.63
2018-05-11T04:40:25.672Z,16.10
2018-05-11T04:42:53.898Z,18.03
2018-05-11T04:45:22.963Z,15.47
2018-05-11T04:47:51.776Z,17.27
2018-05-11T04:50:21.093Z,15.83
2018-05-11T04:52:49.337Z,16.40
2018-05-11T04:55:17.595Z,16.07
2018-05-11T04:57:45.884Z,14.87
2018-05-11T05:00:15.616Z,15.53
2018-05-11T05:02:43.704Z,17.53
2018-05-11T05:05:11.875Z,13.00
2018-05-11T05:07:40.928Z,14.43
2018-05-11T05:10:10.716Z,13.73
2018-05-11T05:12:38.840Z,14.63
2018-05-11T05:15:06.938Z,18.47
2018-05-11T05:17:35.041Z,16.40
2018-05-11T05:20:03.140Z,17.47
2018-05-11T05:22:31.291Z,21.70
2018-05-11T05:24:59.399Z,20.10
2018-05-11T05:27:29.110Z,26.00
2018-05-11T05:29:57.205Z,22.83
2018-05-11T05:32:25.325Z,23.30
2018-05-11T05:34:53.458Z,21.20
2018-05-11T05:37:22.677Z,20.90
2018-05-11T05:39:50.775Z,21.07
2018-05-11T05:42:19.388Z,22.63
2018-05-11T05:44:47.554Z,25.13
2018-05-11T05:47:16.425Z,22.23
2018-05-11T05:49:44.657Z,24.90
2018-05-11T05:52:12.773Z,25.33
2018-05-11T05:54:40.889Z,24.63
2018-05-11T05:57:09.048Z,24.63
2018-05-11T05:59:38.585Z,24.97
2018-05-11T06:02:06.694Z,24.67
2018-05-11T06:04:35.488Z,26.50
2018-05-11T06:07:04.286Z,26.10
2018-05-11T06:09:33.151Z,25.00
2018-05-11T06:12:01.361Z,22.40
2018-05-11T06:14:30.275Z,22.47
2018-05-11T06:16:59.820Z,25.47
2018-05-11T06:19:28.675Z,23.80
2018-05-11T06:21:57.740Z,22.07
2018-05-11T06:24:26.545Z,21.23
2018-05-11T06:26:54.647Z,22.47
2018-05-11T06:29:22.854Z,18.77
2018-05-11T06:31:52.472Z,19.63
2018-05-11T06:34:20.658Z,18.37
2018-05-11T06:36:51.838Z,19.40
2018-05-11T06:39:20.804Z,15.20
2018-05-11T06:41:49.895Z,22.00
2018-05-11T06:44:18.786Z,19.17
2018-05-11T06:46:47.664Z,17.33
2018-05-11T06:49:16.543Z,17.20
2018-05-11T06:51:44.666Z,17.43
2018-05-11T06:54:12.838Z,15.27
2018-05-11T06:56:40.981Z,17.70
2018-05-11T06:59:09.870Z,12.97
2018-05-11T07:01:38.908Z,16.70
2018-05-11T07:04:06.963Z,15.97
2018-05-11T07:06:35.299Z,15.23
2018-05-11T07:09:03.405Z,13.93
2018-05-11T07:11:31.533Z,17.03
2018-05-11T07:14:00.464Z,13.10
2018-05-11T07:16:28.577Z,17.20
2018-05-11T07:18:56.690Z,15.17
2018-05-11T07:21:25.594Z,14.70
2018-05-11T07:23:54.473Z,18.10
2018-05-11T07:26:23.339Z,15.17
2018-05-11T07:28:51.474Z,13.67
2018-05-11T07:31:19.624Z,13.77
2018-05-11T07:33:49.473Z,15.73
2018-05-11T07:36:18.956Z,13.57
2018-05-11T07:38:47.095Z,13.57
2018-05-11T07:41:15.998Z,13.37
2018-05-11T07:43:44.880Z,13.90
2018-05-11T07:46:13.745Z,15.03
2018-05-11T07:48:41.918Z,11.03
2018-05-11T07:51:10.606Z,12.87
2018-05-11T07:53:38.713Z,15.17
2018-05-11T07:56:07.927Z,11.53
2018-05-11T07:58:36.225Z,14.30
2018-05-11T08:01:04.541Z,11.83
2018-05-11T08:03:32.707Z,12.07
2018-05-11T08:06:01.037Z,10.40
2018-05-11T08:08:29.179Z,10.90
2018-05-11T08:10:57.329Z,12.93
2018-05-11T08:13:25.472Z,10.93
2018-05-11T08:15:55.146Z,15.70
2018-05-11T08:18:24.119Z,10.70
2018-05-11T08:20:53.106Z,10.97
2018-05-11T08:23:21.689Z,8.97
2018-05-11T08:28:24.402Z,11.77
2018-05-11T08:30:53.301Z,10.50
2018-05-11T08:33:22.266Z,11.13
2018-05-11T08:35:50.404Z,10.83
2018-05-11T08:38:19.671Z,9.13
2018-05-11T08:40:48.539Z,8.30
2018-05-11T08:43:16.639Z,10.60
2018-05-11T08:45:44.764Z,9.57
2018-05-11T08:48:13.591Z,9.77
2018-05-11T08:50:41.816Z,11.03
2018-05-11T08:53:09.973Z,10.13
2018-05-11T08:55:38.075Z,9.67
2018-05-11T08:58:07.032Z,9.97
2018-05-11T09:00:35.123Z,9.20
2018-05-11T09:03:03.424Z,9.87
2018-05-11T09:05:32.241Z,10.43
2018-05-11T09:08:01.127Z,12.90
2018-05-11T09:10:30.162Z,10.93
2018-05-11T09:12:58.354Z,11.97
2018-05-11T09:15:26.524Z,11.03
2018-05-11T09:17:54.808Z,9.80
2018-05-11T09:20:22.939Z,10.50
2018-05-11T09:22:51.497Z,11.17
2018-05-11T09:25:20.418Z,11.70
2018-05-11T09:27:48.536Z,12.47
2018-05-11T09:30:16.734Z,11.93
2018-05-11T09:32:45.618Z,12.40
2018-05-11T09:35:13.765Z,12.63
2018-05-11T09:37:42.210Z,10.90
2018-05-11T09:40:10.357Z,11.40
2018-05-11T09:42:39.251Z,12.47
2018-05-11T09:45:07.418Z,11.03
2018-05-11T09:47:36.286Z,12.63
2018-05-11T09:50:05.912Z,12.93
2018-05-11T09:52:34.315Z,14.43
2018-05-11T09:55:03.387Z,13.57
2018-05-11T09:57:31.649Z,13.73
2018-05-11T10:00:02.856Z,13.03
2018-05-11T10:02:31.014Z,14.43
2018-05-11T10:04:59.369Z,14.77
2018-05-11T10:07:28.095Z,14.37
2018-05-11T10:09:57.570Z,12.23
2018-05-11T10:12:26.442Z,14.03
2018-05-11T10:14:55.363Z,14.80
2018-05-11T10:17:23.635Z,15.87
2018-05-11T10:19:51.770Z,16.23
2018-05-11T10:22:20.025Z,14.60
2018-05-11T10:24:48.223Z,14.23
2018-05-11T10:27:16.653Z,15.13
2018-05-11T10:29:44.779Z,15.87
2018-05-11T10:32:13.852Z,14.53
2018-05-11T10:34:41.953Z,15.97
2018-05-11T10:37:10.890Z,15.93
2018-05-11T10:39:39.107Z,13.37
2018-05-11T10:42:07.242Z,14.27
2018-05-11T10:44:35.351Z,11.47
2018-05-11T10:47:04.789Z,16.03
2018-05-11T10:49:34.106Z,14.37
2018-05-11T10:52:02.209Z,12.03
2018-05-11T10:54:30.391Z,14.47
2018-05-11T10:56:58.488Z,14.93
2018-05-11T10:59:27.807Z,13.73
2018-05-11T11:01:55.925Z,13.30
2018-05-11T11:04:24.057Z,12.77
2018-05-11T11:06:52.427Z,14.57
2018-05-11T11:09:21.298Z,13.87
2018-05-11T11:11:51.363Z,12.63
2018-05-11T11:14:19.599Z,14.23
2018-05-11T11:16:48.499Z,14.67
2018-05-11T11:19:17.441Z,16.10
2018-05-11T11:21:45.546Z,16.33
2018-05-11T11:24:13.680Z,15.40
2018-05-11T11:26:41.874Z,13.73
2018-05-11T11:29:10.002Z,16.40
2018-05-11T11:31:39.146Z,14.47
2018-05-11T11:34:09.013Z,16.00
2018-05-11T11:36:37.881Z,12.90
2018-05-11T11:39:08.155Z,12.87
2018-05-11T11:41:36.254Z,15.63
2018-05-11T11:44:05.878Z,15.07
2018-05-11T11:46:36.303Z,12.57
2018-05-11T11:49:05.350Z,11.87
2018-05-11T11:51:34.181Z,13.77
2018-05-11T11:54:02.321Z,14.80
2018-05-11T11:56:30.656Z,15.23
2018-05-11T11:58:59.312Z,12.67
2018-05-11T12:01:27.461Z,15.00
2018-05-11T12:03:56.724Z,13.17
2018-05-11T12:06:26.124Z,14.07
2018-05-11T12:08:55.013Z,13.50
2018-05-11T12:11:24.011Z,12.37
2018-05-11T12:13:53.501Z,11.60
2018-05-11T12:16:21.670Z,11.83
2018-05-11T12:18:52.268Z,12.93
2018-05-11T12:21:20.382Z,14.27
2018-05-11T12:23:48.518Z,13.80
2018-05-11T12:26:17.183Z,12.20
2018-05-11T12:28:45.301Z,15.27
2018-05-11T12:31:13.367Z,11.30
2018-05-11T12:33:42.256Z,11.43
2018-05-11T12:36:11.143Z,11.57
2018-05-11T12:38:39.352Z,12.80
2018-05-11T12:41:07.555Z,10.80
2018-05-11T12:43:35.636Z,13.83
2018-05-11T12:46:03.857Z,11.23
2018-05-11T12:48:32.749Z,12.07
2018-05-11T12:51:00.872Z,12.43
2018-05-11T12:53:29.008Z,11.13
2018-05-11T12:55:58.137Z,8.83
2018-05-11T12:58:26.278Z,13.00
2018-05-11T13:00:54.382Z,12.33
2018-05-11T13:03:22.961Z,12.47
2018-05-11T13:05:58.182Z,11.37
2018-05-11T13:08:26.407Z,12.50
2018-05-11T13:10:55.056Z,12.07
2018-05-11T13:13:23.207Z,8.63
2018-05-11T13:15:51.365Z,9.10
2018-05-11T13:18:20.232Z,9.07
2018-05-11T13:20:48.511Z,8.53
2018-05-11T13:23:16.539Z,7.23
2018-05-11T13:25:44.643Z,8.30
2018-05-11T13:28:12.751Z,7.53
2018-05-11T13:30:41.651Z,8.37
2018-05-11T13:33:10.492Z,8.10
2018-05-11T13:35:38.586Z,11.20
2018-05-11T13:38:07.866Z,11.87
2018-05-11T13:40:35.985Z,12.10
2018-05-11T13:43:04.119Z,10.27
2018-05-11T13:45:33.015Z,10.70
2018-05-11T13:48:02.609Z,13.10
2018-05-11T13:50:32.496Z,11.10
2018-05-11T13:53:00.634Z,12.33
2018-05-11T13:55:29.507Z,14.53
2018-05-11T13:57:58.497Z,11.40
2018-05-11T14:00:27.500Z,11.90
2018-05-11T14:02:56.379Z,9.73
2018-05-11T14:05:24.535Z,14.27
2018-05-11T14:07:52.686Z,11.43
2018-05-11T14:10:20.808Z,11.97
2018-05-11T14:12:49.198Z,12.93
2018-05-11T14:15:18.052Z,9.87
2018-05-11T14:17:46.234Z,10.10
2018-05-11T14:20:14.266Z,9.80
2018-05-11T14:22:42.449Z,12.47
2018-05-11T14:25:10.573Z,10.97
2018-05-11T14:27:39.464Z,10.37
2018-05-11T14:30:08.346Z,9.20
2018-05-11T14:32:36.697Z,9.57
2018-05-11T14:35:04.835Z,10.40
2018-05-11T14:37:34.689Z,9.60
2018-05-11T14:40:02.798Z,12.03
2018-05-11T14:42:32.059Z,11.13
2018-05-11T14:45:00.973Z,12.07
2018-05-11T14:47:30.358Z,14.57
2018-05-11T14:49:58.481Z,10.23
2018-05-11T14:52:26.839Z,10.53
2018-05-11T14:54:55.014Z,10.63
2018-05-11T14:57:23.887Z,9.97
2018-05-11T14:59:51.987Z,11.30
2018-05-11T15:02:20.085Z,9.60
2018-05-11T15:04:48.370Z,12.03
2018-05-11T15:07:16.529Z,9.27
2018-05-11T15:09:44.631Z,9.63
2018-05-11T15:12:12.873Z,13.70
2018-05-11T15:14:40.979Z,11.93
2018-05-11T15:17:09.085Z,11.57
2018-05-11T15:19:37.978Z,10.80
2018-05-11T15:22:06.850Z,9.70
2018-05-11T15:24:36.469Z,8.37
2018-05-11T15:27:05.360Z,12.53
2018-05-11T15:29:35.402Z,10.37
2018-05-11T15:32:03.553Z,13.40
2018-05-11T15:34:32.972Z,11.73
2018-05-11T15:37:01.312Z,11.53
2018-05-11T15:39:29.423Z,12.77
2018-05-11T15:41:57.612Z,10.40
2018-05-11T15:44:25.960Z,13.00
2018-05-11T15:46:54.059Z,12.67
2018-05-11T15:49:22.358Z,12.17
2018-05-11T15:51:50.666Z,13.47
2018-05-11T15:54:18.793Z,14.97
2018-05-11T15:56:47.088Z,10.23
2018-05-11T15:59:15.392Z,15.30
2018-05-11T16:01:43.500Z,8.97
2018-05-11T16:04:11.974Z,12.47
2018-05-11T16:06:42.318Z,10.40
2018-05-11T16:09:10.546Z,12.23
2018-05-11T16:11:38.663Z,10.20
2018-05-11T16:14:06.889Z,12.20
2018-05-11T16:16:35.000Z,11.40
2018-05-11T16:19:03.185Z,9.98
2018-05-11T16:21:31.306Z,10.13
2018-05-11T16:24:00.778Z,10.93
2018-05-11T16:26:28.935Z,7.93
2018-05-11T16:28:57.027Z,9.10
2018-05-11T16:31:25.140Z,13.33
2018-05-11T16:33:53.273Z,9.43
2018-05-11T16:36:21.384Z,7.20
2018-05-11T16:38:49.498Z,8.40
2018-05-11T16:41:17.623Z,9.00
2018-05-11T16:43:45.775Z,9.10
2018-05-11T16:46:13.918Z,8.00
2018-05-11T16:48:42.485Z,8.30
2018-05-11T16:51:12.117Z,8.98
2018-05-11T16:53:40.121Z,7.97
2018-05-11T16:56:08.455Z,6.83
2018-05-11T16:58:36.777Z,10.07
2018-05-11T17:01:04.893Z,10.70
2018-05-11T17:03:33.025Z,11.63
2018-05-11T17:06:01.127Z,8.90
2018-05-11T17:08:29.991Z,9.63
2018-05-11T17:10:58.116Z,8.37
2018-05-11T17:13:26.371Z,8.10
2018-05-11T17:15:55.247Z,7.83
2018-05-11T17:18:24.289Z,7.70
2018-05-11T17:20:52.527Z,8.53
2018-05-11T17:23:21.399Z,9.13
2018-05-11T17:25:49.657Z,9.07
2018-05-11T17:28:17.819Z,10.07
2018-05-11T17:30:46.068Z,8.90
2018-05-11T17:33:15.876Z,8.00
2018-05-11T17:35:44.130Z,8.87
2018-05-11T17:38:12.868Z,7.30
2018-05-11T17:40:41.560Z,6.27
2018-05-11T17:43:09.683Z,6.53
2018-05-11T17:45:38.572Z,7.83
2018-05-11T17:48:07.839Z,9.07
2018-05-11T17:50:35.949Z,9.10
2018-05-11T17:53:04.903Z,8.47
2018-05-11T17:55:33.017Z,8.47
2018-05-11T17:58:01.484Z,7.50
2018-05-11T18:00:29.588Z,8.07
2018-05-11T18:02:58.097Z,10.30
2018-05-11T18:05:26.323Z,10.17
2018-05-11T18:07:55.207Z,7.30
2018-05-11T18:10:24.184Z,11.13
2018-05-11T18:12:52.238Z,9.53
2018-05-11T18:15:20.353Z,8.67
2018-05-11T18:17:49.207Z,9.03
2018-05-11T18:20:17.330Z,8.50
2018-05-11T18:22:45.457Z,10.63
2018-05-11T18:25:14.980Z,9.70
2018-05-11T18:27:43.862Z,10.03
2018-05-11T18:30:12.748Z,11.07
2018-05-11T18:32:41.596Z,9.47
2018-05-11T18:35:09.696Z,11.07
2018-05-11T18:37:39.919Z,10.87
2018-05-11T18:40:08.085Z,9.67
2018-05-11T18:42:36.156Z,11.50
2018-05-11T18:45:04.273Z,10.47
2018-05-11T18:47:33.237Z,8.93
2018-05-11T18:50:01.369Z,11.27
2018-05-11T18:52:29.489Z,9.30
2018-05-11T18:54:58.152Z,9.80
2018-05-11T18:57:26.270Z,9.20
2018-05-11T18:59:55.134Z,8.77
2018-05-11T19:02:23.433Z,10.03
2018-05-11T19:04:52.597Z,11.20
2018-05-11T19:07:20.897Z,8.80
2018-05-11T19:09:49.774Z,9.43
2018-05-11T19:12:17.878Z,10.57
2018-05-11T19:14:46.019Z,11.37
2018-05-11T19:17:14.129Z,13.80
2018-05-11T19:19:42.246Z,12.57
2018-05-11T19:22:10.342Z,9.63
2018-05-11T19:24:38.479Z,10.97
2018-05-11T19:27:06.662Z,10.40
2018-05-11T19:29:34.968Z,10.50
2018-05-11T19:32:03.385Z,12.93
2018-05-11T19:34:31.473Z,12.40
2018-05-11T19:36:59.614Z,10.73
2018-05-11T19:39:28.499Z,14.47
2018-05-11T19:41:57.385Z,10.77
2018-05-11T19:44:26.277Z,11.53
2018-05-11T19:46:55.232Z,11.90
2018-05-11T19:49:23.346Z,12.60
2018-05-11T19:51:52.393Z,14.80
2018-05-11T19:54:20.566Z,13.17
2018-05-11T19:56:48.690Z,12.73
2018-05-11T19:59:16.837Z,14.27
2018-05-11T20:01:45.008Z,11.70
2018-05-11T20:04:14.615Z,15.30
2018-05-11T20:06:42.801Z,13.57
2018-05-11T20:09:11.906Z,13.20
2018-05-11T20:11:40.124Z,13.27
2018-05-11T20:14:08.256Z,13.37
2018-05-11T20:16:37.259Z,14.87
2018-05-11T20:19:05.383Z,12.23
2018-05-11T20:21:33.575Z,14.23
2018-05-11T20:24:01.686Z,12.93
2018-05-11T20:26:29.800Z,14.63
2018-05-11T20:28:57.912Z,13.17
2018-05-11T20:31:27.280Z,13.33
2018-05-11T20:33:55.402Z,14.17
2018-05-11T20:36:23.629Z,14.43
2018-05-11T20:38:52.435Z,14.50
2018-05-11T20:41:20.546Z,14.30
2018-05-11T20:43:48.649Z,15.20
2018-05-11T20:46:16.796Z,13.67
2018-05-11T20:48:45.022Z,15.50
2018-05-11T20:51:13.123Z,14.70
2018-05-11T20:53:42.035Z,15.83
2018-05-11T20:56:10.340Z,15.07
2018-05-11T20:58:38.605Z,16.73
2018-05-11T21:01:06.755Z,16.87
2018-05-11T21:03:35.736Z,16.60
2018-05-11T21:06:03.845Z,17.93
2018-05-11T21:08:34.368Z,17.03
2018-05-11T21:11:02.900Z,17.00
2018-05-11T21:13:31.190Z,15.77
2018-05-11T21:16:00.086Z,15.70
2018-05-11T21:18:28.994Z,14.93
2018-05-11T21:20:57.724Z,18.77
2018-05-11T21:23:26.354Z,15.67
2018-05-11T21:25:55.237Z,16.33
2018-05-11T21:28:25.165Z,16.10
2018-05-11T21:30:53.424Z,17.87
2018-05-11T21:33:22.439Z,17.00
2018-05-11T21:35:50.539Z,19.57
2018-05-11T21:38:18.689Z,19.90
2018-05-11T21:40:48.014Z,19.97
2018-05-11T21:43:16.136Z,23.53
2018-05-11T21:45:45.135Z,21.57
2018-05-11T21:48:14.004Z,21.63
2018-05-11T21:50:44.231Z,21.93
2018-05-11T21:53:12.419Z,21.03
2018-05-11T21:55:41.478Z,21.73
2018-05-11T21:58:09.956Z,20.13
2018-05-11T22:00:38.873Z,19.20
2018-05-11T22:03:07.897Z,21.77
2018-05-11T22:05:36.072Z,20.57
2018-05-11T22:08:04.311Z,20.33
2018-05-11T22:10:33.017Z,20.07
2018-05-11T22:13:01.195Z,20.57
2018-05-11T22:15:30.079Z,22.03
2018-05-11T22:17:59.304Z,20.40
2018-05-11T22:20:27.420Z,19.63
2018-05-11T22:22:55.605Z,20.90
2018-05-11T22:25:23.709Z,19.37
2018-05-11T22:27:52.712Z,19.83
2018-05-11T22:30:21.097Z,21.60
2018-05-11T22:32:49.305Z,21.47
2018-05-11T22:35:17.415Z,21.13
2018-05-11T22:37:46.954Z,22.77
2018-05-11T22:40:16.531Z,22.63
2018-05-11T22:42:44.710Z,21.90
2018-05-11T22:45:13.585Z,21.93
2018-05-11T22:47:42.483Z,23.80
2018-05-11T22:50:11.419Z,26.93
2018-05-11T22:52:39.560Z,23.93
2018-05-11T22:55:08.816Z,25.17
2018-05-11T22:57:37.021Z,24.10
2018-05-11T23:00:05.947Z,25.20
2018-05-11T23:02:34.066Z,23.93
2018-05-11T23:05:03.724Z,23.77
2018-05-11T23:07:32.693Z,24.13
2018-05-11T23:10:01.574Z,24.20
2018-05-11T23:12:30.475Z,23.87
2018-05-11T23:14:58.591Z,24.03
2018-05-11T23:17:26.692Z,24.17
2018-05-11T23:19:54.817Z,24.43
2018-05-11T23:22:23.017Z,22.73
2018-05-11T23:24:51.122Z,23.37
2018-05-11T23:27:19.832Z,22.73
2018-05-11T23:29:47.944Z,21.90
2018-05-11T23:32:16.051Z,22.87
2018-05-11T23:34:44.935Z,22.43
2018-05-11T23:37:15.292Z,22.40
2018-05-11T23:39:43.398Z,23.17
2018-05-11T23:42:11.506Z,22.23
2018-05-11T23:44:40.429Z,22.17
2018-05-11T23:47:10.018Z,22.73
2018-05-11T23:49:38.950Z,22.10
2018-05-11T23:52:07.011Z,21.37
2018-05-11T23:54:35.149Z,23.10
2018-05-11T23:57:04.048Z,24.20
2018-05-11T23:59:33.046Z,22.93
